createdAt,value
2022-08-05T00:01:28.472Z,2.20
2022-08-05T00:03:57.046Z,2.10
2022-08-05T00:06:29.044Z,2.53
2022-08-05T00:09:00.768Z,2.33
2022-08-05T00:11:34.745Z,2.15
2022-08-05T00:14:12.970Z,2.38
2022-08-05T00:16:52.585Z,2.35
2022-08-05T00:19:22.533Z,2.63
2022-08-05T00:21:50.234Z,2.40
2022-08-05T00:24:24.324Z,2.08
2022-08-05T00:26:53.364Z,2.17
2022-08-05T00:29:22.650Z,2.15
2022-08-05T00:32:10.668Z,2.05
2022-08-05T00:35:04.825Z,2.13
2022-08-05T00:37:35.507Z,2.20
2022-08-05T00:40:27.852Z,1.70
2022-08-05T00:42:56.590Z,2.05
2022-08-05T00:45:25.022Z,1.70
2022-08-05T00:48:07.006Z,1.80
2022-08-05T00:50:35.067Z,2.10
2022-08-05T00:53:03.152Z,1.83
2022-08-05T00:55:42.896Z,2.53
2022-08-05T00:58:16.885Z,2.20
2022-08-05T01:00:47.259Z,2.10
2022-08-05T01:03:22.573Z,1.80
2022-08-05T01:05:51.163Z,1.85
2022-08-05T01:08:41.365Z,2.20
2022-08-05T01:11:14.773Z,1.73
2022-08-05T01:13:59.775Z,1.70
2022-08-05T01:16:34.655Z,1.85
2022-08-05T01:19:07.620Z,1.90
2022-08-05T01:21:37.899Z,2.60
2022-08-05T01:24:14.119Z,3.58
2022-08-05T01:26:41.815Z,2.90
2022-08-05T01:29:14.590Z,2.15
2022-08-05T01:31:48.193Z,1.88
2022-08-05T01:34:27.385Z,1.70
2022-08-05T01:37:00.519Z,2.83
2022-08-05T01:39:46.211Z,2.60
2022-08-05T01:42:15.988Z,2.28
2022-08-05T01:44:45.682Z,2.88
2022-08-05T01:47:22.187Z,2.13
2022-08-05T01:50:01.598Z,2.38
2022-08-05T01:52:32.849Z,2.20
2022-08-05T01:55:04.699Z,2.20
2022-08-05T01:58:30.189Z,1.98
2022-08-05T02:00:30.331Z,1.70
2022-08-05T02:03:04.944Z,2.08
2022-08-05T02:05:34.347Z,2.08
2022-08-05T02:08:03.582Z,2.08
2022-08-05T02:10:34.878Z,2.25
2022-08-05T02:13:21.019Z,2.00
2022-08-05T02:15:51.645Z,1.73
2022-08-05T02:18:32.276Z,1.60
2022-08-05T02:21:14.958Z,1.98
2022-08-05T02:23:44.286Z,1.60
2022-08-05T02:26:14.198Z,1.90
2022-08-05T02:31:16.591Z,1.75
2022-08-05T02:33:57.863Z,1.77
2022-08-05T02:36:27.609Z,2.08
2022-08-05T02:38:56.446Z,2.15
2022-08-05T02:41:28.296Z,1.80
2022-08-05T02:44:06.979Z,1.75
2022-08-05T02:46:53.272Z,2.00
2022-08-05T02:49:26.948Z,1.83
2022-08-05T02:52:04.745Z,1.85
2022-08-05T02:54:34.486Z,2.20
2022-08-05T02:57:05.256Z,1.70
2022-08-05T02:59:50.150Z,1.60
2022-08-05T03:02:22.271Z,1.80
2022-08-05T03:04:53.148Z,1.70
2022-08-05T03:10:08.290Z,1.90
2022-08-05T03:12:39.243Z,1.90
2022-08-05T03:15:09.344Z,1.88
2022-08-05T03:17:41.715Z,1.65
2022-08-05T03:20:13.467Z,1.70
2022-08-05T03:22:44.014Z,2.17
2022-08-05T03:25:33.507Z,1.75
2022-08-05T03:28:02.376Z,1.60
2022-08-05T03:30:33.956Z,1.95
2022-08-05T03:33:05.576Z,1.77
2022-08-05T03:35:40.471Z,1.58
2022-08-05T03:38:08.658Z,2.45
2022-08-05T03:40:36.079Z,1.75
2022-08-05T03:43:58.421Z,1.67
2022-08-05T03:45:58.170Z,2.15
2022-08-05T03:48:27.028Z,1.67
2022-08-05T03:52:35.338Z,2.03
2022-08-05T03:55:52.226Z,1.92
2022-08-05T03:56:46.328Z,1.90
2022-08-05T03:59:26.327Z,1.92
2022-08-05T04:01:58.986Z,1.92
2022-08-05T04:04:27.835Z,1.90
2022-08-05T04:06:55.987Z,2.00
2022-08-05T04:09:26.616Z,2.10
2022-08-05T04:11:56.571Z,2.47
2022-08-05T04:14:30.089Z,1.93
2022-08-05T04:16:58.299Z,2.17
2022-08-05T04:19:25.636Z,2.10
2022-08-05T04:22:09.882Z,2.25
2022-08-05T04:24:43.856Z,1.98
2022-08-05T04:27:12.964Z,2.17
2022-08-05T04:29:40.802Z,2.10
2022-08-05T04:32:09.221Z,2.28
2022-08-05T04:34:39.654Z,2.03
2022-08-05T04:37:10.503Z,2.60
2022-08-05T04:39:39.146Z,2.20
2022-08-05T04:42:07.550Z,1.98
2022-08-05T04:44:36.539Z,2.00
2022-08-05T04:47:08.630Z,1.83
2022-08-05T04:49:39.183Z,2.40
2022-08-05T04:52:27.415Z,2.03
2022-08-05T04:54:57.343Z,2.10
2022-08-05T04:57:28.970Z,2.40
2022-08-05T04:59:57.032Z,2.00
2022-08-05T05:02:37.403Z,2.33
2022-08-05T05:05:16.805Z,2.30
2022-08-05T05:08:01.172Z,2.25
2022-08-05T05:10:29.872Z,2.28
2022-08-05T05:12:57.707Z,2.20
2022-08-05T05:15:54.347Z,2.30
2022-08-05T05:18:31.146Z,2.10
2022-08-05T05:21:01.409Z,2.20
2022-08-05T05:24:02.343Z,2.22
2022-08-05T05:26:16.010Z,2.50
2022-08-05T05:28:45.040Z,2.65
2022-08-05T05:31:12.691Z,2.60
2022-08-05T05:33:58.892Z,2.53
2022-08-05T05:36:28.794Z,2.50
2022-08-05T05:38:57.535Z,2.50
2022-08-05T05:41:25.126Z,2.47
2022-08-05T05:44:35.485Z,2.80
2022-08-05T05:46:54.733Z,2.45
2022-08-05T05:49:25.337Z,2.42
2022-08-05T05:51:52.762Z,2.47
2022-08-05T05:54:20.857Z,2.10
2022-08-05T05:56:48.344Z,2.78
2022-08-05T05:59:15.617Z,2.20
2022-08-05T06:01:57.368Z,2.92
2022-08-05T06:04:25.675Z,2.60
2022-08-05T06:06:53.131Z,2.65
2022-08-05T06:09:27.458Z,2.67
2022-08-05T06:12:09.553Z,2.38
2022-08-05T06:14:37.093Z,2.80
2022-08-05T06:17:22.513Z,2.80
2022-08-05T06:19:56.796Z,2.75
2022-08-05T06:22:33.718Z,3.70
2022-08-05T06:25:01.431Z,3.60
2022-08-05T06:28:11.225Z,4.25
2022-08-05T06:30:36.005Z,5.15
2022-08-05T06:33:03.379Z,5.30
2022-08-05T06:36:03.731Z,5.60
2022-08-05T06:38:35.613Z,5.65
2022-08-05T06:41:03.722Z,5.57
2022-08-05T06:43:58.654Z,5.32
2022-08-05T06:46:19.073Z,4.20
2022-08-05T06:48:55.779Z,3.65
2022-08-05T06:51:29.781Z,3.70
2022-08-05T06:54:01.784Z,3.33
2022-08-05T06:56:29.855Z,3.03
2022-08-05T06:58:57.401Z,3.58
2022-08-05T07:01:32.464Z,3.10
2022-08-05T07:04:01.490Z,2.65
2022-08-05T07:06:30.027Z,2.60
2022-08-05T07:08:59.242Z,2.72
2022-08-05T07:11:28.819Z,2.45
2022-08-05T07:14:20.287Z,2.40
2022-08-05T07:17:59.331Z,3.13
2022-08-05T07:20:31.709Z,2.80
2022-08-05T07:22:34.441Z,3.38
2022-08-05T07:25:23.216Z,3.00
2022-08-05T07:27:57.276Z,2.78
2022-08-05T07:30:31.693Z,3.10
2022-08-05T07:32:59.649Z,3.00
2022-08-05T07:36:01.938Z,2.80
2022-08-05T07:38:34.420Z,3.20
2022-08-05T07:42:08.760Z,2.60
2022-08-05T07:44:00.914Z,2.80
2022-08-05T07:46:29.412Z,2.63
2022-08-05T07:49:02.385Z,2.25
2022-08-05T07:51:36.856Z,3.85
2022-08-05T07:54:05.199Z,2.80
2022-08-05T07:57:01.412Z,2.65
2022-08-05T07:59:21.909Z,2.75
2022-08-05T08:01:52.121Z,2.80
2022-08-05T08:04:37.366Z,2.30
2022-08-05T08:07:07.166Z,2.30
2022-08-05T08:09:34.965Z,2.13
2022-08-05T08:12:10.663Z,2.20
2022-08-05T08:14:42.409Z,2.30
2022-08-05T08:17:15.841Z,2.40
2022-08-05T08:20:22.816Z,2.63
2022-08-05T08:22:32.255Z,2.58
2022-08-05T08:25:03.064Z,2.42
2022-08-05T08:27:35.662Z,2.40
2022-08-05T08:30:30.161Z,2.50
2022-08-05T08:33:01.031Z,2.45
2022-08-05T08:35:34.722Z,2.20
2022-08-05T08:38:08.095Z,2.20
2022-08-05T08:40:36.401Z,2.13
2022-08-05T08:44:57.872Z,2.22
2022-08-05T08:45:55.411Z,2.45
2022-08-05T08:48:41.617Z,2.10
2022-08-05T08:52:02.070Z,2.20
2022-08-05T08:53:58.897Z,2.15
2022-08-05T08:56:27.988Z,2.10
2022-08-05T08:58:55.736Z,2.40
2022-08-05T09:01:25.897Z,2.58
2022-08-05T09:03:57.527Z,2.20
2022-08-05T09:06:30.522Z,2.28
2022-08-05T09:09:02.340Z,2.17
2022-08-05T09:11:51.728Z,2.33
2022-08-05T09:14:56.508Z,2.78
2022-08-05T09:17:08.289Z,2.20
2022-08-05T09:19:55.387Z,2.25
2022-08-05T09:22:32.035Z,2.20
2022-08-05T09:25:01.093Z,2.35
2022-08-05T09:28:04.745Z,2.22
2022-08-05T09:30:23.448Z,2.50
2022-08-05T09:32:52.372Z,2.50
2022-08-05T09:35:26.441Z,2.28
2022-08-05T09:38:17.691Z,2.40
2022-08-05T09:40:52.596Z,2.00
2022-08-05T09:43:41.024Z,1.85
2022-08-05T09:46:27.701Z,2.40
2022-08-05T09:49:07.625Z,2.00
2022-08-05T09:51:43.509Z,2.00
2022-08-05T09:54:11.601Z,2.00
2022-08-05T09:56:51.747Z,2.38
2022-08-05T09:59:27.732Z,2.15
2022-08-05T10:01:58.188Z,2.10
2022-08-05T10:04:38.460Z,1.85
2022-08-05T10:07:21.052Z,1.92
2022-08-05T10:10:14.514Z,2.20
2022-08-05T10:12:50.045Z,1.85
2022-08-05T10:15:22.352Z,1.75
2022-08-05T10:18:27.175Z,2.17
2022-08-05T10:21:06.138Z,1.80
2022-08-05T10:23:59.556Z,1.73
2022-08-05T10:26:31.659Z,2.08
2022-08-05T10:29:00.302Z,2.28
2022-08-05T10:32:55.161Z,2.00
2022-08-05T10:34:16.925Z,2.40
2022-08-05T10:36:44.733Z,2.05
2022-08-05T10:39:25.045Z,2.00
2022-08-05T10:42:33.806Z,2.20
2022-08-05T10:45:02.044Z,1.98
2022-08-05T10:48:29.765Z,2.17
2022-08-05T10:50:57.250Z,2.30
2022-08-05T10:53:38.244Z,2.63
2022-08-05T10:56:25.329Z,2.30
2022-08-05T10:59:06.897Z,2.08
2022-08-05T11:01:54.635Z,2.20
2022-08-05T11:04:28.464Z,2.47
2022-08-05T11:06:58.506Z,2.00
2022-08-05T11:09:39.310Z,2.28
2022-08-05T11:12:25.618Z,2.20
2022-08-05T11:15:19.055Z,2.28
2022-08-05T11:18:00.151Z,2.20
2022-08-05T11:20:44.258Z,1.95
2022-08-05T11:23:33.578Z,2.08
2022-08-05T11:26:29.133Z,2.20
2022-08-05T11:29:12.196Z,2.00
2022-08-05T11:31:57.937Z,2.22
2022-08-05T11:34:38.124Z,2.10
2022-08-05T11:38:30.566Z,2.10
2022-08-05T11:40:00.195Z,2.10
2022-08-05T11:42:31.132Z,2.15
2022-08-05T11:45:03.041Z,1.70
2022-08-05T11:47:48.474Z,2.55
2022-08-05T11:50:16.643Z,1.77
2022-08-05T11:52:46.038Z,2.55
2022-08-05T11:55:15.665Z,2.17
2022-08-05T11:58:09.968Z,2.03
2022-08-05T12:00:38.362Z,1.88
2022-08-05T12:03:28.875Z,1.80
2022-08-05T12:06:00.319Z,2.30
2022-08-05T12:08:28.422Z,2.08
2022-08-05T12:13:48.096Z,2.25
2022-08-05T12:16:18.719Z,2.20
2022-08-05T12:18:52.466Z,2.28
2022-08-05T12:21:31.939Z,2.15
2022-08-05T12:24:06.873Z,2.30
2022-08-05T12:26:44.260Z,2.30
2022-08-05T12:29:17.856Z,1.77
2022-08-05T12:31:53.448Z,2.10
2022-08-05T12:34:25.840Z,2.30
2022-08-05T12:36:54.184Z,1.70
2022-08-05T12:39:22.160Z,1.88
2022-08-05T12:41:51.301Z,1.90
2022-08-05T12:44:33.220Z,1.70
2022-08-05T12:47:02.230Z,1.92
2022-08-05T12:50:04.166Z,2.20
2022-08-05T12:52:32.392Z,2.20
2022-08-05T12:55:17.012Z,2.20
2022-08-05T12:58:50.214Z,1.93
2022-08-05T13:02:00.938Z,2.30
2022-08-05T13:03:20.694Z,2.33
2022-08-05T13:05:50.415Z,2.03
2022-08-05T13:08:20.832Z,2.30
2022-08-05T13:10:59.985Z,2.20
2022-08-05T13:14:05.966Z,2.15
2022-08-05T13:16:17.179Z,2.17
2022-08-05T13:18:55.169Z,2.30
2022-08-05T13:23:55.376Z,2.90
2022-08-05T13:26:30.320Z,2.42
2022-08-05T13:28:58.973Z,2.40
2022-08-05T13:31:33.714Z,2.10
2022-08-05T13:34:22.357Z,2.70
2022-08-05T13:36:52.789Z,2.40
2022-08-05T13:40:12.994Z,2.58
2022-08-05T13:42:07.810Z,2.40
2022-08-05T13:44:45.468Z,2.50
2022-08-05T13:47:34.756Z,2.30
2022-08-05T13:50:00.810Z,2.50
2022-08-05T13:52:35.570Z,2.35
2022-08-05T13:55:07.359Z,2.55
2022-08-05T13:57:50.734Z,2.38
2022-08-05T14:00:19.803Z,2.28
2022-08-05T14:02:55.362Z,2.67
2022-08-05T14:05:48.463Z,2.55
2022-08-05T14:08:11.272Z,2.60
2022-08-05T14:10:49.143Z,2.35
2022-08-05T14:13:16.553Z,2.40
2022-08-05T14:16:06.972Z,3.00
2022-08-05T14:18:31.262Z,3.08
2022-08-05T14:21:00.256Z,2.30
2022-08-05T14:23:46.856Z,2.28
2022-08-05T14:26:38.300Z,2.45
2022-08-05T14:29:01.505Z,2.72
2022-08-05T14:32:03.777Z,3.00
2022-08-05T14:34:17.083Z,3.30
2022-08-05T14:36:44.417Z,2.50
2022-08-05T14:39:23.292Z,2.80
2022-08-05T14:42:15.959Z,2.42
2022-08-05T14:44:38.179Z,2.78
2022-08-05T14:47:05.634Z,2.67
2022-08-05T14:49:59.232Z,3.10
2022-08-05T14:52:50.132Z,2.72
2022-08-05T14:55:15.398Z,2.83
2022-08-05T14:57:56.175Z,2.80
2022-08-05T15:00:28.109Z,2.55
2022-08-05T15:02:55.834Z,2.80
2022-08-05T15:05:30.077Z,2.97
2022-08-05T15:08:17.842Z,3.05
2022-08-05T15:10:58.078Z,2.70
2022-08-05T15:13:45.815Z,3.00
2022-08-05T15:16:13.193Z,2.92
2022-08-05T15:18:40.713Z,2.88
2022-08-05T15:21:08.845Z,2.80
2022-08-05T15:23:36.179Z,3.00
2022-08-05T15:26:05.488Z,2.85
2022-08-05T15:28:34.539Z,2.83
2022-08-05T15:31:03.688Z,3.25
2022-08-05T15:34:18.731Z,2.92
2022-08-05T15:36:24.707Z,3.05
2022-08-05T15:40:41.487Z,2.90
2022-08-05T15:41:57.702Z,3.45
2022-08-05T15:44:27.645Z,3.15
2022-08-05T15:46:55.636Z,3.42
2022-08-05T15:49:40.829Z,3.45
2022-08-05T15:52:16.843Z,3.13
2022-08-05T15:54:57.029Z,3.80
2022-08-05T15:57:24.499Z,3.53
2022-08-05T16:02:26.274Z,4.07
2022-08-05T16:04:56.051Z,3.90
2022-08-05T16:07:23.424Z,3.50
2022-08-05T16:09:51.501Z,3.90
2022-08-05T16:12:21.481Z,4.03
2022-08-05T16:14:48.768Z,3.78
2022-08-05T16:17:16.222Z,4.20
2022-08-05T16:20:04.959Z,3.97
2022-08-05T16:22:33.921Z,3.72
2022-08-05T16:28:00.715Z,3.60
2022-08-05T16:30:23.099Z,3.60
2022-08-05T16:32:53.426Z,3.60
2022-08-05T16:35:27.986Z,4.10
2022-08-05T16:38:02.565Z,3.80
2022-08-05T16:40:47.807Z,4.15
2022-08-05T16:43:25.141Z,4.20
2022-08-05T16:46:06.811Z,4.28
2022-08-05T16:48:40.446Z,4.20
2022-08-05T16:51:09.074Z,4.55
2022-08-05T16:54:02.527Z,4.10
2022-08-05T16:56:26.521Z,4.07
2022-08-05T16:58:54.637Z,4.30
2022-08-05T17:01:22.599Z,4.57
2022-08-05T17:03:52.163Z,4.55
2022-08-05T17:06:19.702Z,5.00
2022-08-05T17:08:53.611Z,4.72
2022-08-05T17:11:23.828Z,4.88
2022-08-05T17:14:00.356Z,4.70
2022-08-05T17:16:36.802Z,5.35
2022-08-05T17:19:09.706Z,5.07
2022-08-05T17:21:39.595Z,4.78
2022-08-05T17:24:28.211Z,5.25
2022-08-05T17:26:58.302Z,5.27
2022-08-05T17:29:33.375Z,5.80
2022-08-05T17:32:01.471Z,5.85
2022-08-05T17:34:30.123Z,6.03
2022-08-05T17:36:59.492Z,5.80
2022-08-05T17:39:34.051Z,5.70
2022-08-05T17:42:20.129Z,5.80
2022-08-05T17:44:50.382Z,6.35
2022-08-05T17:47:22.069Z,6.57
2022-08-05T17:49:52.133Z,6.30
2022-08-05T17:52:30.777Z,6.88
2022-08-05T17:54:58.507Z,6.72
2022-08-05T17:57:25.830Z,6.63
2022-08-05T18:00:03.363Z,6.43
2022-08-05T18:02:32.507Z,7.15
2022-08-05T18:05:03.696Z,6.93
2022-08-05T18:07:41.477Z,6.40
2022-08-05T18:10:10.523Z,6.95
2022-08-05T18:12:38.468Z,7.53
2022-08-05T18:15:06.575Z,7.10
2022-08-05T18:18:01.504Z,7.13
2022-08-05T18:20:29.653Z,7.32
2022-08-05T18:23:00.709Z,6.95
2022-08-05T18:25:39.582Z,6.87
2022-08-05T18:28:12.515Z,8.10
2022-08-05T18:30:43.719Z,7.85
2022-08-05T18:33:13.790Z,7.65
2022-08-05T18:36:00.143Z,7.70
2022-08-05T18:38:30.759Z,8.13
2022-08-05T18:41:57.940Z,7.60
2022-08-05T18:43:48.648Z,8.10
2022-08-05T18:46:20.323Z,7.50
2022-08-05T18:48:52.640Z,7.35
2022-08-05T18:52:04.746Z,8.10
2022-08-05T18:54:31.367Z,8.38
2022-08-05T18:57:00.919Z,8.10
2022-08-05T18:59:43.090Z,7.88
2022-08-05T19:02:27.747Z,7.95
2022-08-05T19:05:02.949Z,8.48
2022-08-05T19:07:45.925Z,7.57
2022-08-05T19:10:14.017Z,7.97
2022-08-05T19:12:41.303Z,8.07
2022-08-05T19:15:57.765Z,7.80
2022-08-05T19:18:08.865Z,8.82
2022-08-05T19:20:41.775Z,8.30
2022-08-05T19:24:04.272Z,10.93
2022-08-05T19:26:03.017Z,9.70
2022-08-05T19:28:32.847Z,9.68
2022-08-05T19:31:01.055Z,9.30
2022-08-05T19:33:35.715Z,9.55
2022-08-05T19:36:06.422Z,10.10
2022-08-05T19:38:35.736Z,9.50
2022-08-05T19:41:07.263Z,9.57
2022-08-05T19:44:04.741Z,9.30
2022-08-05T19:46:29.446Z,9.60
2022-08-05T19:48:57.161Z,9.38
2022-08-05T19:52:05.582Z,9.07
2022-08-05T19:54:28.393Z,9.98
2022-08-05T19:56:59.150Z,9.30
2022-08-05T19:59:56.151Z,9.77
2022-08-05T20:02:15.100Z,9.15
2022-08-05T20:04:46.167Z,9.43
2022-08-05T20:07:14.390Z,9.98
2022-08-05T20:09:53.795Z,9.65
2022-08-05T20:12:23.704Z,9.88
2022-08-05T20:14:52.425Z,9.45
2022-08-05T20:17:23.252Z,9.50
2022-08-05T20:19:56.644Z,9.75
2022-08-05T20:22:27.678Z,9.10
2022-08-05T20:24:55.985Z,37.80
2022-08-05T20:27:27.532Z,10.35
2022-08-05T20:30:09.784Z,10.43
2022-08-05T20:32:37.377Z,10.07
2022-08-05T20:35:12.662Z,9.55
2022-08-05T20:38:06.255Z,10.15
2022-08-05T20:40:30.261Z,10.68
2022-08-05T20:43:00.365Z,9.90
2022-08-05T20:45:56.077Z,10.32
2022-08-05T20:48:16.182Z,9.75
2022-08-05T20:50:46.796Z,10.35
2022-08-05T20:53:16.324Z,10.27
2022-08-05T20:56:08.838Z,10.23
2022-08-05T20:58:37.050Z,9.57
2022-08-05T21:01:04.734Z,10.63
2022-08-05T21:03:34.613Z,9.68
2022-08-05T21:06:02.494Z,9.95
2022-08-05T21:08:42.418Z,9.40
2022-08-05T21:11:12.712Z,9.60
2022-08-05T21:13:47.463Z,10.05
2022-08-05T21:16:22.822Z,9.40
2022-08-05T21:18:56.522Z,9.75
2022-08-05T21:23:54.709Z,9.15
2022-08-05T21:26:22.130Z,8.90
2022-08-05T21:28:53.752Z,9.57
2022-08-05T21:31:41.050Z,9.30
2022-08-05T21:34:10.374Z,10.00
2022-08-05T21:36:38.103Z,9.75
2022-08-05T21:39:05.526Z,9.13
2022-08-05T21:41:35.881Z,9.48
2022-08-05T21:44:04.143Z,9.55
2022-08-05T21:46:34.434Z,9.18
2022-08-05T21:49:02.675Z,9.30
2022-08-05T21:52:27.156Z,9.68
2022-08-05T21:54:27.865Z,9.23
2022-08-05T21:57:29.662Z,9.65
2022-08-05T22:00:02.888Z,9.43
2022-08-05T22:02:32.068Z,8.82
2022-08-05T22:04:59.415Z,9.32
2022-08-05T22:07:40.362Z,9.05
2022-08-05T22:10:18.581Z,10.05
2022-08-05T22:12:54.757Z,9.40
2022-08-05T22:16:02.461Z,9.52
2022-08-05T22:18:12.312Z,9.45
2022-08-05T22:20:44.130Z,9.43
2022-08-05T22:24:03.037Z,9.43
2022-08-05T22:26:36.383Z,9.45
2022-08-05T22:29:04.102Z,8.88
2022-08-05T22:31:31.723Z,9.68
2022-08-05T22:34:12.904Z,8.88
2022-08-05T22:36:52.882Z,9.32
2022-08-05T22:39:21.585Z,9.27
2022-08-05T22:42:09.517Z,8.80
2022-08-05T22:44:36.367Z,8.20
2022-08-05T22:47:05.745Z,8.75
2022-08-05T22:50:18.362Z,8.73
2022-08-05T22:52:30.386Z,9.30
2022-08-05T22:55:00.298Z,9.15
2022-08-05T22:57:34.198Z,8.23
2022-08-05T23:00:05.471Z,8.50
2022-08-05T23:02:35.465Z,8.07
2022-08-05T23:05:13.733Z,8.57
2022-08-05T23:07:45.301Z,9.20
2022-08-05T23:10:19.503Z,8.93
2022-08-05T23:12:47.981Z,8.18
2022-08-05T23:15:19.085Z,8.80
2022-08-05T23:18:00.849Z,8.68
2022-08-05T23:20:30.400Z,8.80
2022-08-05T23:22:58.711Z,8.85
2022-08-05T23:25:51.863Z,9.13
2022-08-05T23:28:15.986Z,9.02
2022-08-05T23:30:53.831Z,8.52
2022-08-05T23:33:26.080Z,8.25
2022-08-05T23:36:10.025Z,8.52
2022-08-05T23:38:37.749Z,7.95
2022-08-05T23:41:05.147Z,8.52
2022-08-05T23:44:02.865Z,8.60
2022-08-05T23:46:22.104Z,9.05
2022-08-05T23:48:59.988Z,8.65
2022-08-05T23:51:53.297Z,8.90
2022-08-05T23:54:30.294Z,9.55
2022-08-05T23:57:04.641Z,9.05
